This is the latest recevied weather packets stored in our database for station/object KC7WRB. If no packets are shown the sender has not sent any weather packets the latest 10 day(s).
| Time | Temp. | Humidity | Pressure | Rain* | Wind** | Luminosity | Snow |
|---|---|---|---|---|---|---|---|
| 1777651168 | 13.89° C | 30% | 1021 hPa | 0 mm | - | 494 W/m² | - |
| 1777650865 | 13.33° C | 31% | 1021.2 hPa | 0 mm | - | 472 W/m² | - |
| 1777650562 | 13.89° C | 32% | 1021 hPa | 0 mm | - | 395 W/m² | - |
| 1777650259 | 12.78° C | 34% | 1020.8 hPa | 0 mm | - | 429 W/m² | - |
| 1777649956 | 12.78° C | 34% | 1020.9 hPa | 0 mm | - | 411 W/m² | - |
| 1777649654 | 13.33° C | 33% | 1021.2 hPa | 0 mm | - | 392 W/m² | - |
| 1777649349 | 13.33° C | 33% | 1021 hPa | 0 mm | - | 372 W/m² | - |
| 1777649047 | 13.33° C | 34% | 1021 hPa | 0 mm | - | 353 W/m² | - |
| 1777648744 | 12.78° C | 34% | 1020.9 hPa | 0 mm | - | 335 W/m² | - |
| 1777648440 | 12.22° C | 35% | 1020.8 hPa | 0 mm | - | 318 W/m² | - |
| 1777648136 | 11.67° C | 35% | 1021 hPa | 0 mm | - | 283 W/m² | - |
| 1777647833 | 11.11° C | 36% | 1020.9 hPa | 0 mm | - | 275 W/m² | - |
| 1777647529 | 10.56° C | 36% | 1021.2 hPa | 0 mm | - | 256 W/m² | - |
| 1777647226 | 10° C | 42% | 1020.9 hPa | 0 mm | - | 238 W/m² | - |
| 1777646924 | 9.44° C | 40% | 1020.8 hPa | 0 mm | - | 218 W/m² | - |
| 1777646619 | 7.78° C | 49% | 1020.8 hPa | 0 mm | - | 201 W/m² | - |
| 1777646316 | 6.67° C | 51% | 1020.9 hPa | 0 mm | - | 174 W/m² | - |
| 1777646013 | 6.11° C | 54% | 1020.6 hPa | 0 mm | - | 167 W/m² | - |
| 1777645709 | 6.11° C | 53% | 1020.8 hPa | 0 mm | - | 155 W/m² | - |
| 1777645406 | 5.56° C | 52% | 1020.7 hPa | 0 mm | - | 50 W/m² | - |
| 1777645102 | 4.44° C | 56% | 1020.6 hPa | 0 mm | - | 48 W/m² | - |
| 1777644798 | 3.33° C | 62% | 1020.6 hPa | 0 mm | - | 47 W/m² | - |
| 1777644496 | 3.33° C | 63% | 1020.5 hPa | 0 mm | - | 74 W/m² | - |
| 1777644192 | 2.78° C | 64% | 1020.5 hPa | 0 mm | - | 82 W/m² | - |
| 1777643888 | 2.78° C | 65% | 1020.3 hPa | 0 mm | - | 41 W/m² | - |
* Rain latest hour (hover to see other rain measurements)
** Current wind speed in m/s (hover to see current wind gust speed)